Time;durP1;ratioP1;P1;durP2;ratioP2;P2;SDS_P1;SDS_P2;PMS_P1;PMS_P2;Temp;Humidity;BMP_temperature;BMP_pressure;BME280_temperature;BME280_humidity;BME280_pressure;Samples;Min_cycle;Max_cycle;Signal;HPM_P1;HPM_P2
2022/05/09 00:00:32;;;;;;;7.88;4.15;;;10.60;99.90;;;9.50;97.55;101639.75;4996930;28;20069;-87
2022/05/09 00:02:59;;;;;;;11.63;4.90;;;10.60;99.90;;;9.46;97.36;101641.06;4987351;28;20408;-88
2022/05/09 00:05:29;;;;;;;12.73;4.40;;;10.60;99.90;;;9.49;97.42;101636.19;5002612;28;20069;-88
2022/05/09 00:07:58;;;;;;;8.05;3.80;;;10.60;99.90;;;9.45;97.61;101632.06;4995755;28;20046;-87
2022/05/09 00:10:28;;;;;;;14.80;5.07;;;10.50;99.90;;;9.42;97.85;101632.34;4999503;28;21869;-88
2022/05/09 00:12:55;;;;;;;11.93;4.40;;;10.50;99.90;;;9.37;97.85;101635.53;4990627;28;20047;-88
2022/05/09 00:15:24;;;;;;;9.23;4.22;;;10.50;99.90;;;9.32;98.22;101632.41;4993413;28;20696;-88
2022/05/09 00:17:51;;;;;;;9.98;4.25;;;10.50;99.90;;;9.32;98.43;101636.97;4997070;28;20568;-88
2022/05/09 00:20:19;;;;;;;10.65;4.45;;;10.40;99.90;;;9.32;98.31;101632.41;4998498;28;20773;-88
2022/05/09 00:22:51;;;;;;;10.43;4.72;;;10.40;99.90;;;9.28;98.88;101633.72;5006278;28;20041;-90
2022/05/09 00:25:23;;;;;;;9.68;4.72;;;10.40;99.90;;;9.26;98.57;101637.59;5002517;28;20134;-88
2022/05/09 00:27:52;;;;;;;11.38;4.05;;;10.40;99.90;;;9.26;98.86;101635.72;4995778;28;20066;-88
2022/05/09 00:30:19;;;;;;;13.15;4.50;;;10.30;99.90;;;9.26;98.79;101635.72;4991669;28;20054;-88
2022/05/09 00:32:47;;;;;;;9.10;4.57;;;10.30;99.90;;;9.24;98.77;101632.28;4998452;28;20556;-88
2022/05/09 00:35:15;;;;;;;8.82;4.75;;;10.30;99.90;;;9.20;98.48;101628.16;5008675;28;20068;-88
2022/05/09 00:37:43;;;;;;;11.68;4.90;;;10.30;99.90;;;9.20;98.52;101622.75;5007404;28;20137;-87
2022/05/09 00:40:15;;;;;;;9.60;4.80;;;10.30;99.90;;;9.19;98.76;101629.16;5016248;28;20042;-88
2022/05/09 00:42:48;;;;;;;10.25;4.80;;;10.30;99.90;;;9.19;98.78;101634.59;4975997;28;20046;-88
2022/05/09 00:45:15;;;;;;;8.85;4.65;;;10.30;99.90;;;9.19;99.33;101629.16;4991138;28;20491;-88
2022/05/09 00:47:45;;;;;;;10.52;5.13;;;10.30;99.90;;;9.14;99.69;101628.78;4992389;28;20073;-88
2022/05/09 00:50:18;;;;;;;11.50;5.00;;;10.20;99.90;;;9.12;99.75;101630.75;4999786;28;20097;-87
2022/05/09 00:52:52;;;;;;;10.20;5.15;;;10.20;99.90;;;9.09;99.81;101626.47;4980174;28;20085;-88
2022/05/09 00:55:25;;;;;;;12.93;5.35;;;10.10;99.90;;;9.07;100.00;101628.50;4997801;28;20513;-88
2022/05/09 00:58:00;;;;;;;13.60;5.00;;;10.20;99.90;;;9.08;99.90;101623.91;5000119;28;20506;-87
2022/05/09 01:00:28;;;;;;;10.80;5.40;;;10.30;99.90;;;9.05;100.00;101619.63;5005442;28;20077;-88
2022/05/09 01:03:02;;;;;;;14.10;4.90;;;10.20;99.90;;;9.02;100.00;101616.34;4990828;28;20038;-88
2022/05/09 01:05:29;;;;;;;13.98;5.55;;;10.20;99.90;;;9.00;100.00;101617.38;5001418;28;20153;-89
2022/05/09 01:07:58;;;;;;;10.90;5.13;;;10.20;99.90;;;9.00;100.00;101616.50;4997662;28;20085;-88
2022/05/09 01:10:34;;;;;;;10.18;5.50;;;10.20;99.90;;;8.99;100.00;101618.38;5002892;28;20039;-88
2022/05/09 01:13:06;;;;;;;11.35;5.40;;;10.10;99.90;;;8.99;100.00;101620.22;5003944;28;20043;-89
2022/05/09 01:15:34;;;;;;;12.07;5.18;;;10.10;99.90;;;8.95;100.00;101618.81;5015533;28;20077;-89
2022/05/09 01:18:05;;;;;;;12.98;5.72;;;10.10;99.90;;;8.95;100.00;101614.22;4994353;28;20070;-88
2022/05/09 01:20:32;;;;;;;13.45;5.32;;;10.10;99.90;;;8.93;100.00;101613.53;4993205;28;20525;-88
2022/05/09 01:23:03;;;;;;;11.55;4.97;;;10.10;99.90;;;8.97;100.00;101609.50;4995838;28;20645;-88
2022/05/09 01:25:32;;;;;;;11.68;5.50;;;10.10;99.90;;;8.98;100.00;101613.06;4999536;28;20549;-90
2022/05/09 01:28:00;;;;;;;11.07;5.65;;;10.10;99.90;;;8.91;100.00;101604.69;4990286;28;20125;-88
2022/05/09 01:30:36;;;;;;;13.55;5.80;;;10.10;99.90;;;8.90;100.00;101602.94;5003963;28;20057;-89
2022/05/09 01:33:08;;;;;;;10.15;4.80;;;10.10;99.90;;;8.92;100.00;101606.38;4992912;28;20042;-89
2022/05/09 01:35:45;;;;;;;14.85;5.57;;;10.00;99.90;;;8.91;100.00;101601.97;4997183;28;20048;-89
2022/05/09 01:38:23;;;;;;;10.60;5.53;;;10.00;99.90;;;8.89;100.00;101598.53;4990131;28;20067;-88
2022/05/09 01:40:51;;;;;;;11.15;5.38;;;10.00;99.90;;;8.88;100.00;101604.97;5010854;28;20039;-89
2022/05/09 01:43:33;;;;;;;13.88;5.75;;;10.00;99.90;;;8.86;100.00;101603.41;4995489;28;20525;-88
2022/05/09 01:46:01;;;;;;;14.82;5.70;;;10.00;99.90;;;8.87;100.00;101605.09;5001411;28;20050;-88
2022/05/09 01:51:29;;;;;;;10.48;5.57;;;10.00;99.90;;;8.85;100.00;101605.25;4915071;29;20044;-88
2022/05/09 01:54:01;;;;;;;11.27;4.97;;;9.90;99.90;;;8.83;99.90;101615.38;4938647;29;20048;-89
2022/05/09 01:56:31;;;;;;;11.40;5.43;;;10.00;99.90;;;8.80;100.00;101607.56;4968492;28;20050;-88
2022/05/09 01:59:00;;;;;;;14.20;6.00;;;10.00;99.90;;;8.81;100.00;101601.09;4997129;28;20559;-87
2022/05/09 02:01:34;;;;;;;12.95;5.70;;;9.90;99.90;;;8.79;100.00;101595.81;5016443;28;20133;-88
2022/05/09 02:04:02;;;;;;;10.98;5.40;;;9.90;99.90;;;8.75;100.00;101607.13;4999263;28;20115;-88
2022/05/09 02:06:29;;;;;;;15.98;5.82;;;9.90;99.90;;;8.73;100.00;101609.97;5007242;28;20043;-89
2022/05/09 02:08:59;;;;;;;13.95;5.40;;;9.90;99.90;;;8.74;100.00;101609.00;4989590;28;20043;-89
2022/05/09 02:11:27;;;;;;;8.23;5.15;;;9.90;99.90;;;8.69;100.00;101611.28;5009751;28;20076;-88
2022/05/09 02:13:54;;;;;;;12.02;5.80;;;9.80;99.90;;;8.64;100.00;101607.28;4996911;28;20506;-89
2022/05/09 02:16:21;;;;;;;11.30;6.00;;;9.80;99.90;;;8.65;100.00;101606.31;5015246;28;20054;-89
2022/05/09 02:18:49;;;;;;;14.70;6.07;;;9.80;99.90;;;8.61;100.00;101603.88;4998315;28;20441;-89
2022/05/09 02:21:16;;;;;;;11.77;5.97;;;9.70;99.90;;;8.58;100.00;101609.56;4999424;28;20060;-89
2022/05/09 02:23:43;;;;;;;10.60;5.95;;;9.70;99.90;;;8.57;100.00;101610.59;4986845;28;20038;-88
2022/05/09 02:26:12;;;;;;;10.55;5.78;;;9.70;99.90;;;8.53;100.00;101611.88;5010607;28;20049;-89
2022/05/09 02:28:40;;;;;;;11.63;5.88;;;9.70;99.90;;;8.53;100.00;101605.56;4991790;28;20140;-89
2022/05/09 02:31:08;;;;;;;12.13;5.93;;;9.70;99.90;;;8.54;100.00;101610.88;5001546;28;20101;-89
2022/05/09 02:33:36;;;;;;;10.75;6.00;;;9.70;99.90;;;8.53;100.00;101602.88;5008563;28;20054;-89
2022/05/09 02:36:05;;;;;;;15.82;6.00;;;9.70;99.90;;;8.57;100.00;101604.31;5000292;28;20049;-88
2022/05/09 02:38:32;;;;;;;13.50;6.18;;;9.70;99.90;;;8.64;100.00;101593.72;5014042;28;20070;-88
2022/05/09 02:40:59;;;;;;;15.52;5.50;;;9.70;99.90;;;8.67;99.81;101594.28;4984212;28;20066;-89
2022/05/09 02:43:28;;;;;;;16.45;5.78;;;9.80;99.90;;;8.67;100.00;101604.28;5005837;28;20045;-89
2022/05/09 02:46:03;;;;;;;13.85;5.68;;;9.80;99.90;;;8.69;99.97;101597.72;5001235;28;20565;-88
2022/05/09 02:48:31;;;;;;;11.77;6.28;;;9.90;99.90;;;8.64;100.00;101600.00;4991483;28;20050;-90
2022/05/09 02:50:58;;;;;;;14.02;5.80;;;9.80;99.90;;;8.63;100.00;101595.59;4998199;28;20061;-89
2022/05/09 02:53:26;;;;;;;11.45;5.97;;;9.80;99.90;;;8.58;100.00;101596.00;5015128;28;20410;-89
2022/05/09 02:55:53;;;;;;;11.25;5.72;;;9.70;99.90;;;8.53;100.00;101597.44;4997717;28;20074;-89
2022/05/09 02:58:20;;;;;;;14.23;5.80;;;9.70;99.90;;;8.52;100.00;101596.59;4994353;28;20042;-88
2022/05/09 03:00:49;;;;;;;12.63;6.43;;;9.70;99.90;;;8.50;100.00;101593.16;4989029;28;20538;-88
2022/05/09 03:06:01;;;;;;;12.82;5.93;;;9.70;99.90;;;8.49;100.00;101591.47;4997242;28;20050;-89
2022/05/09 03:08:29;;;;;;;13.95;5.68;;;9.70;99.90;;;8.48;100.00;101595.16;5009200;28;20125;-88
2022/05/09 03:10:57;;;;;;;13.25;6.60;;;9.60;99.90;;;8.43;100.00;101594.75;5000233;28;20388;-88
2022/05/09 03:13:24;;;;;;;10.20;5.43;;;9.60;99.90;;;8.41;100.00;101599.41;4999600;28;20042;-88
2022/05/09 03:15:53;;;;;;;11.90;5.82;;;9.60;99.90;;;8.41;100.00;101596.72;4996750;28;20034;-90
2022/05/09 03:18:25;;;;;;;10.65;6.13;;;9.50;99.90;;;8.38;100.00;101595.16;4988806;28;20089;-88
2022/05/09 03:20:53;;;;;;;12.70;5.93;;;9.40;99.90;;;8.38;100.00;101583.44;5000804;28;20042;-89
2022/05/09 03:23:21;;;;;;;11.68;5.97;;;9.50;99.90;;;8.38;100.00;101589.72;4982734;28;20082;-88
2022/05/09 03:25:48;;;;;;;9.65;5.75;;;9.40;99.90;;;8.36;100.00;101590.88;4993347;28;20068;-89
2022/05/09 03:28:21;;;;;;;12.73;6.63;;;9.40;99.90;;;8.31;100.00;101579.59;4997365;28;20582;-88
2022/05/09 03:30:51;;;;;;;8.30;5.60;;;9.40;99.90;;;8.30;100.00;101583.28;4997759;28;20093;-89
2022/05/09 03:33:22;;;;;;;11.90;5.90;;;9.40;99.90;;;8.30;100.00;101586.00;4991587;28;20097;-88
2022/05/09 03:35:50;;;;;;;12.55;6.20;;;9.30;99.90;;;8.29;100.00;101587.88;4989073;28;20050;-90
2022/05/09 03:38:17;;;;;;;15.48;6.68;;;9.30;99.90;;;8.29;100.00;101587.03;4995845;28;20042;-89
2022/05/09 03:40:44;;;;;;;15.07;6.72;;;9.40;99.90;;;8.30;100.00;101586.88;4993388;28;20137;-89
2022/05/09 03:43:12;;;;;;;10.73;6.22;;;9.40;99.90;;;8.31;100.00;101582.31;4992191;28;20137;-89
2022/05/09 03:45:41;;;;;;;13.43;6.70;;;9.50;99.90;;;8.32;100.00;101578.59;4989943;28;20410;-90
2022/05/09 03:48:09;;;;;;;10.30;6.15;;;9.50;99.90;;;8.31;100.00;101587.72;4996493;28;20049;-89
2022/05/09 03:50:38;;;;;;;12.93;6.57;;;9.50;99.90;;;8.33;100.00;101586.56;5013560;28;20070;-89
2022/05/09 03:53:05;;;;;;;12.93;6.35;;;9.50;99.90;;;8.35;100.00;101581.88;4992384;28;20042;-89
2022/05/09 03:55:33;;;;;;;16.13;6.97;;;9.50;99.90;;;8.34;100.00;101585.59;5002647;28;20125;-89
2022/05/09 03:58:02;;;;;;;11.45;6.50;;;9.50;99.90;;;8.37;100.00;101581.72;4999411;28;20511;-87
2022/05/09 04:00:32;;;;;;;13.82;6.63;;;9.50;99.90;;;8.36;100.00;101582.75;4997277;28;20045;-90
2022/05/09 04:03:01;;;;;;;12.95;6.72;;;9.50;99.90;;;8.41;100.00;101588.56;5010596;28;20113;-89
2022/05/09 04:05:35;;;;;;;14.80;6.75;;;9.50;99.90;;;8.40;100.00;101581.44;5023693;28;20112;-92
2022/05/09 04:08:09;;;;;;;10.77;6.32;;;9.60;99.90;;;8.38;100.00;101575.31;5005473;28;20101;-92
2022/05/09 04:10:40;;;;;;;18.92;6.97;;;9.60;99.90;;;8.41;100.00;101580.44;4994620;28;20050;-93
2022/05/09 04:13:08;;;;;;;13.50;6.60;;;9.60;99.90;;;8.43;100.00;101581.19;4994881;28;20112;-92
2022/05/09 04:18:29;;;;;;;13.27;6.28;;;9.60;99.90;;;8.45;100.00;101581.88;5001781;28;20056;-93
2022/05/09 04:20:59;;;;;;;15.13;6.18;;;9.60;99.90;;;8.47;100.00;101581.75;5011379;28;20047;-92
2022/05/09 04:23:30;;;;;;;14.63;6.72;;;9.60;99.90;;;8.52;100.00;101576.75;4995614;28;20058;-93
2022/05/09 04:26:08;;;;;;;13.73;6.35;;;9.70;99.90;;;8.58;100.00;101574.28;5011566;28;20047;-93
2022/05/09 04:28:35;;;;;;;12.77;6.75;;;9.70;99.90;;;8.64;100.00;101574.72;4994190;28;20054;-92
2022/05/09 04:31:03;;;;;;;12.48;6.18;;;9.90;99.90;;;8.63;100.00;101570.31;4995151;28;20142;-92
2022/05/09 04:33:31;;;;;;;15.27;6.55;;;10.00;99.90;;;8.66;100.00;101576.28;4994884;28;20085;-92
2022/05/09 04:39:12;;;;;;;13.32;6.38;;;10.10;99.90;;;8.77;100.00;101575.25;4992550;28;20058;-93
2022/05/09 04:41:40;;;;;;;12.57;6.38;;;10.10;99.90;;;8.83;100.00;101577.38;5011471;28;20088;-94
2022/05/09 04:44:08;;;;;;;15.52;6.60;;;10.20;99.90;;;8.87;100.00;101576.13;4992522;28;20043;-92
2022/05/09 04:46:37;;;;;;;12.02;6.32;;;10.30;99.90;;;8.93;100.00;101569.22;4991716;28;20047;-94
2022/05/09 04:49:12;;;;;;;12.52;6.38;;;10.40;99.90;;;8.97;100.00;101579.66;4991977;28;20146;-92
2022/05/09 04:51:42;;;;;;;10.82;6.47;;;10.40;99.90;;;9.03;100.00;101569.22;4992256;28;20051;-92
2022/05/09 04:54:14;;;;;;;17.80;7.13;;;10.50;99.90;;;9.08;100.00;101569.59;5008398;28;20042;-93
2022/05/09 04:56:42;;;;;;;12.35;6.53;;;10.50;99.90;;;9.08;100.00;101572.31;4995351;28;20061;-93
2022/05/09 04:59:12;;;;;;;11.30;6.50;;;10.70;99.90;;;9.11;100.00;101564.72;5002261;28;20065;-93
2022/05/09 05:01:40;;;;;;;13.10;6.63;;;10.80;99.90;;;9.25;100.00;101571.50;4993767;28;20553;-91
2022/05/09 05:04:17;;;;;;;13.90;7.10;;;10.90;99.90;;;9.31;100.00;101570.06;4994087;28;20109;-92
2022/05/09 05:07:48;;;;;;;12.95;6.72;;;10.90;99.90;;;9.48;100.00;101571.13;5001928;28;20046;-96
2022/05/09 05:10:30;;;;;;;12.93;7.05;;;11.00;99.90;;;9.52;100.00;101564.38;4957287;28;20525;-93
2022/05/09 05:12:59;;;;;;;11.18;7.10;;;11.20;99.90;;;9.58;100.00;101566.50;5004540;28;20046;-92
2022/05/09 05:15:38;;;;;;;13.52;7.18;;;11.30;99.90;;;9.67;100.00;101564.72;5000449;28;20068;-93
2022/05/09 05:25:45;;;;;;;15.63;7.53;;;11.70;99.90;;;10.04;100.00;101564.59;4941725;28;20488;-88
2022/05/09 05:28:16;;;;;;;13.23;6.82;;;11.90;99.90;;;10.12;100.00;101563.81;5006457;28;20144;-90
2022/05/09 05:30:44;;;;;;;14.52;7.43;;;12.00;99.90;;;10.18;100.00;101564.06;5002395;28;20046;-87
2022/05/09 05:33:15;;;;;;;13.27;7.70;;;12.00;99.90;;;10.27;100.00;101566.84;4986953;28;20046;-90
2022/05/09 05:36:10;;;;;;;18.05;7.75;;;12.10;99.90;;;10.33;100.00;101561.66;4984183;28;20039;-94
2022/05/09 05:38:39;;;;;;;17.08;7.70;;;12.20;99.90;;;10.34;99.94;101567.97;4989787;28;20068;-92
2022/05/09 05:41:07;;;;;;;18.77;7.93;;;12.20;99.90;;;10.39;98.30;101565.63;4992189;28;20049;-91
2022/05/09 05:43:35;;;;;;;14.90;7.50;;;12.20;99.90;;;10.43;98.98;101561.56;4989180;28;20034;-92
2022/05/09 05:46:02;;;;;;;13.93;7.72;;;12.30;99.90;;;10.49;98.30;101563.69;4991705;28;21611;-91
2022/05/09 05:48:30;;;;;;;17.63;7.40;;;12.40;99.90;;;10.57;98.77;101562.88;4985772;28;20042;-91
2022/05/09 05:50:57;;;;;;;13.98;7.75;;;12.50;99.90;;;10.63;98.56;101559.50;4988674;28;20400;-91
2022/05/09 05:53:25;;;;;;;19.13;7.63;;;12.50;99.90;;;10.68;97.26;101564.47;4977110;28;20050;-90
2022/05/09 05:55:52;;;;;;;17.30;8.43;;;12.50;99.90;;;10.72;95.87;101565.88;5000817;28;20552;-91
2022/05/09 05:58:23;;;;;;;16.75;8.07;;;12.60;99.90;;;10.75;97.43;101566.41;4988676;28;20120;-92
2022/05/09 06:00:50;;;;;;;18.60;9.33;;;12.60;99.90;;;10.80;96.77;101565.94;4992195;28;20050;-92
2022/05/09 06:03:20;;;;;;;22.05;8.00;;;12.70;99.90;;;10.78;96.02;101564.41;4990852;28;20315;-91
2022/05/09 06:05:48;;;;;;;17.08;8.57;;;12.70;99.90;;;10.85;96.88;101568.16;4990798;28;20038;-92
2022/05/09 06:08:15;;;;;;;14.52;7.88;;;12.80;99.90;;;10.92;96.82;101567.34;4994995;28;20101;-92
2022/05/09 06:10:43;;;;;;;14.25;7.45;;;12.90;99.90;;;11.01;95.52;101564.69;4998102;28;20525;-91
2022/05/09 06:13:16;;;;;;;18.00;8.00;;;13.00;99.90;;;11.11;95.37;101573.59;4991959;28;20047;-92
2022/05/09 06:15:47;;;;;;;14.93;7.68;;;13.10;99.90;;;11.10;93.67;101580.91;4992698;28;20066;-89
2022/05/09 06:18:14;;;;;;;13.85;7.38;;;13.00;99.60;;;11.15;94.21;101567.66;4992236;28;20050;-91
2022/05/09 06:20:44;;;;;;;18.52;8.13;;;13.20;99.90;;;11.28;94.73;101572.66;4992111;28;20056;-92
2022/05/09 06:23:16;;;;;;;16.30;8.07;;;13.20;99.90;;;11.34;94.52;101561.09;4991924;28;20462;-93
2022/05/09 06:25:46;;;;;;;;;;;13.30;99.90;;;11.45;95.94;101570.00;4993517;28;20814;-92
2022/05/09 06:28:15;;;;;;;15.40;7.45;;;13.50;99.90;;;11.53;93.69;101567.31;4990352;28;19979;-93
2022/05/09 06:30:45;;;;;;;16.63;8.23;;;13.60;99.90;;;11.61;94.87;101572.78;4984356;28;20050;-92
2022/05/09 06:33:12;;;;;;;15.43;7.50;;;13.70;99.90;;;11.67;91.55;101579.44;4991704;28;20486;-92
2022/05/09 06:35:44;;;;;;;18.33;7.80;;;13.80;97.80;;;11.72;91.56;101580.66;4996028;28;20725;-91
2022/05/09 06:38:15;;;;;;;11.65;7.18;;;13.90;97.70;;;11.78;90.82;101570.94;4991515;28;20054;-92
2022/05/09 06:40:43;;;;;;;12.70;7.50;;;14.00;96.90;;;11.88;90.27;101568.06;4992348;28;20046;-91
2022/05/09 06:43:12;;;;;;;18.45;7.30;;;14.00;96.80;;;12.02;91.61;101572.06;4990188;28;20046;-91
2022/05/09 06:45:42;;;;;;;15.27;7.43;;;14.10;97.40;;;12.10;91.22;101562.00;5006892;28;20140;-92
2022/05/09 06:48:11;;;;;;;13.55;8.15;;;14.30;97.60;;;12.17;93.11;101558.63;4984676;28;20054;-91
2022/05/09 06:50:40;;;;;;;16.02;7.22;;;14.30;98.40;;;12.27;90.85;101556.56;4988630;28;20038;-90
2022/05/09 06:53:09;;;;;;;13.18;7.10;;;14.40;96.90;;;12.35;89.22;101555.72;4989994;28;20055;-89
2022/05/09 06:55:36;;;;;;;14.98;6.90;;;14.60;96.00;;;12.45;90.52;101554.53;4993573;28;20038;-88
2022/05/09 06:58:07;;;;;;;17.45;6.88;;;14.70;96.60;;;12.57;88.93;101551.47;4987836;28;20047;-88
2022/05/09 07:00:35;;;;;;;13.07;6.73;;;14.80;95.30;;;12.66;88.42;101553.13;4985366;28;20113;-91
2022/05/09 07:03:03;;;;;;;18.52;6.80;;;14.90;95.20;;;12.91;89.58;101549.34;4990837;28;20045;-90
2022/05/09 07:05:33;;;;;;;14.98;6.82;;;14.90;95.70;;;12.99;87.07;101555.81;5006262;28;20050;-91
2022/05/09 07:08:00;;;;;;;13.95;6.30;;;15.00;94.50;;;12.97;85.18;101546.94;5005922;28;20404;-93
2022/05/09 07:10:28;;;;;;;12.77;6.18;;;15.10;92.80;;;12.96;85.50;101554.25;4987413;28;20050;-91
2022/05/09 07:12:58;;;;;;;14.77;6.50;;;15.10;93.60;;;12.95;86.02;101559.94;4989767;28;20062;-90
2022/05/09 07:15:30;;;;;;;13.20;6.18;;;15.20;93.60;;;12.95;88.15;101559.94;4988838;28;20125;-91
2022/05/09 07:17:59;;;;;;;13.43;6.80;;;15.30;94.00;;;12.95;86.40;101554.47;4989294;28;20046;-91
2022/05/09 07:20:30;;;;;;;12.70;6.25;;;15.30;92.90;;;12.99;86.74;101550.34;4992623;28;20043;-90
2022/05/09 07:23:06;;;;;;;;;;;15.40;92.60;;;12.97;86.28;101555.13;4989745;28;20061;-89
2022/05/09 07:25:33;;;;;;;11.10;5.60;;;15.40;92.90;;;13.01;85.72;101548.28;5005974;28;19989;-91
2022/05/09 07:28:01;;;;;;;15.50;5.97;;;15.40;92.50;;;12.94;86.81;101544.53;4990177;28;20053;-92
2022/05/09 07:30:29;;;;;;;13.95;6.18;;;15.50;93.00;;;13.00;87.61;101546.56;4990660;28;20042;-92
2022/05/09 07:32:58;;;;;;;12.52;5.40;;;15.50;93.30;;;13.02;87.02;101542.66;5010491;28;20568;-92
2022/05/09 07:35:27;;;;;;;14.07;5.38;;;15.50;92.90;;;13.03;87.36;101538.03;4997280;28;20133;-92
2022/05/09 07:37:56;;;;;;;15.40;6.30;;;15.60;93.20;;;13.18;88.55;101539.00;4990626;28;20202;-94
2022/05/09 07:40:25;;;;;;;13.90;5.65;;;15.60;93.80;;;13.19;86.35;101539.84;4990551;28;20046;-91
2022/05/09 07:42:53;;;;;;;12.68;5.60;;;15.70;92.70;;;13.19;86.94;101535.22;4982449;28;20050;-89
2022/05/09 07:45:21;;;;;;;10.48;5.60;;;15.70;92.90;;;13.25;85.55;101537.28;4985100;28;20069;-92
2022/05/09 07:47:49;;;;;;;13.75;5.40;;;15.80;92.00;;;13.33;86.46;101544.63;4984958;28;20042;-90
2022/05/09 07:50:18;;;;;;;11.23;5.60;;;15.80;92.20;;;13.28;87.16;101528.69;5003089;28;20054;-91
2022/05/09 07:52:46;;;;;;;15.20;4.90;;;15.80;92.80;;;13.37;87.83;101539.66;4989324;28;20042;-91
2022/05/09 07:55:16;;;;;;;12.85;5.22;;;15.80;93.30;;;13.35;88.28;101549.91;4985847;28;20465;-91
2022/05/09 07:57:45;;;;;;;12.95;5.35;;;15.90;93.30;;;13.45;88.38;101545.06;4987722;28;20046;-90
2022/05/09 08:00:14;;;;;;;13.95;5.82;;;15.90;93.90;;;13.42;88.95;101542.69;4986974;28;20066;-90
2022/05/09 08:02:50;;;;;;;13.52;5.07;;;15.90;94.00;;;13.47;89.45;101545.75;4985460;28;20050;-89
2022/05/09 08:05:18;;;;;;;11.20;5.43;;;16.00;94.10;;;13.46;90.23;101541.28;4986683;28;20054;-89
2022/05/09 08:07:45;;;;;;;10.90;5.22;;;16.00;94.10;;;13.44;89.43;101535.16;4988267;28;20042;-90
2022/05/09 08:10:15;;;;;;;11.48;4.82;;;16.00;93.60;;;13.46;90.21;101541.28;4989030;28;20047;-89
2022/05/09 08:12:44;;;;;;;10.00;5.30;;;16.10;93.90;;;13.49;90.02;101530.00;4987595;28;20035;-90
2022/05/09 08:15:15;;;;;;;15.93;5.35;;;16.10;93.90;;;13.50;90.44;101520.78;4988730;28;20065;-91
2022/05/09 08:17:45;;;;;;;13.98;5.35;;;16.10;93.90;;;13.51;90.64;101525.22;4988597;28;20458;-88
2022/05/09 08:20:15;;;;;;;12.02;4.88;;;16.10;94.10;;;13.54;90.41;101535.81;4990720;28;20093;-90
2022/05/09 08:22:42;;;;;;;17.17;5.05;;;16.10;93.90;;;13.61;90.81;101530.44;4988773;28;20043;-89
2022/05/09 08:25:13;;;;;;;11.60;5.22;;;16.20;94.20;;;13.66;90.98;101526.16;4990687;28;20050;-90
2022/05/09 08:27:41;;;;;;;17.00;5.23;;;16.20;94.20;;;13.69;90.59;101525.78;4992350;28;20093;-90
2022/05/09 08:30:12;;;;;;;10.32;4.60;;;16.20;94.00;;;13.74;90.26;101527.13;5004057;28;20066;-91
2022/05/09 08:32:40;;;;;;;12.35;4.68;;;16.30;94.00;;;13.75;90.88;101526.13;4977534;28;20059;-90
2022/05/09 08:35:09;;;;;;;15.38;5.05;;;16.30;94.20;;;13.82;91.72;101527.94;4986118;28;20043;-91
2022/05/09 08:37:37;;;;;;;12.20;5.55;;;16.40;94.90;;;13.98;95.11;101529.72;4990938;28;20042;-91
2022/05/09 08:40:06;;;;;;;14.07;5.28;;;16.40;96.70;;;14.18;93.53;101524.56;4992644;28;20050;-93
2022/05/09 08:42:42;;;;;;;15.27;4.80;;;16.50;96.30;;;14.31;92.94;101523.97;4991551;28;20125;-89
2022/05/09 08:45:22;;;;;;;13.13;5.50;;;16.60;96.20;;;14.44;93.88;101524.19;4987443;28;20055;-90
2022/05/09 08:48:40;;;;;;;13.10;5.63;;;16.60;97.30;;;14.61;94.35;101519.44;4986578;28;20137;-90
2022/05/09 08:51:20;;;;;;;12.02;5.07;;;16.70;97.60;;;14.70;100.00;101522.09;5005125;28;20065;-90
2022/05/09 08:53:57;;;;;;;19.27;5.65;;;16.70;99.20;;;14.87;93.76;101529.13;4985833;28;20046;-89
2022/05/09 08:56:24;;;;;;;13.98;5.60;;;16.90;97.70;;;14.71;94.20;101524.66;4987267;28;20046;-89
2022/05/09 08:58:58;;;;;;;11.55;5.65;;;16.90;96.90;;;14.63;93.80;101524.72;4989457;28;20034;-89
2022/05/09 09:20:56;;;;;;;14.20;5.68;;;17.00;98.90;;;14.93;95.00;101506.44;4651626;23;20054;-94
2022/05/09 09:23:57;;;;;;;14.07;5.70;;;17.00;98.20;;;14.78;93.94;101514.63;4972215;28;20094;-93
2022/05/09 09:26:41;;;;;;;15.52;6.25;;;17.00;97.40;;;14.89;94.26;101507.84;4972379;28;20050;-93
2022/05/09 09:29:18;;;;;;;13.57;5.82;;;16.90;97.50;;;14.86;94.36;101503.56;4973861;28;20121;-92
2022/05/09 09:31:58;;;;;;;14.73;5.50;;;16.90;97.40;;;14.78;95.74;101508.31;4972036;28;20055;-92
2022/05/09 09:34:38;;;;;;;10.50;5.57;;;16.90;97.70;;;14.93;99.17;101505.59;4972912;28;20052;-94
2022/05/09 09:38:12;;;;;;;17.15;7.70;;;16.90;99.90;;;15.18;94.92;101496.00;4973026;28;20051;-93
2022/05/09 09:40:53;;;;;;;12.60;7.55;;;17.00;99.00;;;15.15;94.30;101503.75;4866317;28;20205;-91
2022/05/09 09:43:21;;;;;;;15.85;7.38;;;17.10;98.30;;;15.02;94.49;101509.91;4966770;28;20078;-93
2022/05/09 09:46:09;;;;;;;13.18;6.85;;;17.00;97.80;;;15.10;95.76;101498.88;4969693;28;20098;-92
2022/05/09 09:48:36;;;;;;;16.60;6.28;;;17.10;98.90;;;15.09;96.70;101494.41;4970858;28;20039;-93
2022/05/09 09:54:17;;;;;;;10.40;6.10;;;17.10;99.20;;;15.23;98.18;101489.94;5003529;23;20046;-94
2022/05/09 09:56:49;;;;;;;16.85;6.45;;;17.10;99.90;;;15.13;96.80;101489.41;4966962;28;20448;-94
2022/05/09 09:59:21;;;;;;;12.20;6.07;;;17.10;99.10;;;15.07;98.58;101491.00;4972209;28;20097;-92
2022/05/09 10:02:08;;;;;;;15.57;7.13;;;17.10;99.80;;;15.31;96.14;101486.25;4974956;28;20118;-92
2022/05/09 10:04:35;;;;;;;16.42;6.57;;;17.20;99.00;;;15.15;97.17;101476.34;4971183;28;20494;-92
2022/05/09 10:07:07;;;;;;;12.80;6.82;;;17.20;99.10;;;15.17;96.45;101472.38;4972590;28;20539;-92
2022/05/09 10:09:39;;;;;;;;;;;17.20;99.10;;;15.19;97.64;101469.44;4971699;28;20047;-92
2022/05/09 10:12:23;;;;;;;13.73;8.18;;;17.20;99.30;;;15.19;95.83;101473.03;4972401;28;19925;-91
2022/05/09 10:14:52;;;;;;;13.05;6.60;;;17.20;98.80;;;15.27;97.21;101469.34;4974504;28;20043;-91
2022/05/09 10:17:30;;;;;;;14.63;6.95;;;17.20;99.40;;;15.52;96.20;101467.09;4981604;28;20047;-94
2022/05/09 10:20:35;;;;;;;15.30;8.00;;;17.30;99.70;;;15.43;94.86;101468.25;4988333;28;20507;-92
2022/05/09 10:33:31;;;;;;;12.50;7.20;;;17.20;98.10;;;15.41;99.91;101453.88;5330868;23;20062;-91
2022/05/09 10:36:08;;;;;;;12.70;7.22;;;17.30;99.90;;;15.56;99.72;101440.13;4971136;28;20049;-93
2022/05/09 10:38:43;;;;;;;13.07;8.00;;;17.40;99.90;;;15.93;96.53;101441.78;4965309;28;20043;-92
2022/05/09 10:41:26;;;;;;;13.98;7.65;;;17.50;99.90;;;15.93;94.72;101435.44;4972124;28;20051;-94
2022/05/09 10:44:00;;;;;;;15.80;7.05;;;17.60;99.40;;;15.69;96.04;101444.88;4970175;28;20054;-91
2022/05/09 10:46:42;;;;;;;12.23;7.15;;;17.50;99.20;;;15.91;95.17;101443.03;4971498;28;20491;-91
2022/05/09 10:49:24;;;;;;;15.85;7.82;;;17.60;99.50;;;15.80;92.95;101430.66;4968427;28;20126;-92
2022/05/09 10:52:07;;;;;;;13.65;6.88;;;17.60;97.80;;;15.59;93.54;101426.00;4969695;28;20039;-91
2022/05/09 10:54:49;;;;;;;15.20;6.97;;;17.60;97.60;;;15.48;94.38;101426.50;4969634;28;20816;-92
2022/05/09 10:57:29;;;;;;;10.98;6.45;;;17.60;97.80;;;15.58;98.38;101422.41;4970695;28;20100;-92
2022/05/09 11:00:12;;;;;;;13.80;6.70;;;17.60;99.60;;;15.68;98.25;101429.47;4967816;28;20043;-92
2022/05/09 11:02:43;;;;;;;12.23;7.07;;;17.60;99.90;;;15.82;97.60;101423.09;4971527;28;20035;-93
2022/05/09 11:05:11;;;;;;;12.55;6.97;;;17.60;99.90;;;15.78;95.17;101419.03;4971471;28;20122;-92
2022/05/09 11:07:53;;;;;;;11.45;6.63;;;17.70;98.70;;;15.72;93.29;101417.06;4969412;28;20038;-92
2022/05/09 11:10:33;;;;;;;11.77;7.07;;;17.70;97.50;;;15.76;92.79;101410.16;4969492;28;20053;-91
2022/05/09 11:13:20;;;;;;;12.40;7.15;;;17.70;97.30;;;15.62;93.32;101412.75;4966099;28;20039;-90
2022/05/09 11:16:06;;;;;;;15.40;6.75;;;17.70;97.50;;;15.58;94.53;101405.94;4970590;28;20038;-91
2022/05/09 11:19:21;;;;;;;12.30;7.38;;;17.70;97.60;;;15.66;95.34;101401.38;4982112;28;20550;-90
2022/05/09 11:21:58;;;;;;;14.90;6.55;;;17.70;98.40;;;15.79;94.74;101396.88;4958745;28;20057;-91